sensor_id;sensor_type;location;lat;lon;timestamp;pressure;altitude;pressure_sealevel;temperature;humidity
12781;BME280;6454;43.304;24.344;2023-04-26T00:02:15;99333.53;;;11.54;99.65
12781;BME280;6454;43.304;24.344;2023-04-26T00:04:43;99326.97;;;11.55;96.63
12781;BME280;6454;43.304;24.344;2023-04-26T00:07:12;99326.63;;;11.48;95.66
12781;BME280;6454;43.304;24.344;2023-04-26T00:09:40;99322.69;;;11.32;97.21
12781;BME280;6454;43.304;24.344;2023-04-26T00:12:08;99319.16;;;11.23;99.10
12781;BME280;6454;43.304;24.344;2023-04-26T00:14:36;99293.88;;;11.14;100.00
12781;BME280;6454;43.304;24.344;2023-04-26T00:17:03;99310.41;;;11.34;98.82
12781;BME280;6454;43.304;24.344;2023-04-26T00:19:30;99317.09;;;11.28;98.57
12781;BME280;6454;43.304;24.344;2023-04-26T00:21:57;99318.06;;;11.32;98.92
12781;BME280;6454;43.304;24.344;2023-04-26T00:24:25;99321.41;;;11.29;98.47
12781;BME280;6454;43.304;24.344;2023-04-26T00:26:53;99321.16;;;11.39;96.95
12781;BME280;6454;43.304;24.344;2023-04-26T00:29:19;99318.28;;;11.36;96.70
12781;BME280;6454;43.304;24.344;2023-04-26T00:31:46;99315.72;;;11.39;96.34
12781;BME280;6454;43.304;24.344;2023-04-26T00:34:13;99302.06;;;11.22;97.63
12781;BME280;6454;43.304;24.344;2023-04-26T00:36:40;99302.41;;;11.29;98.07
12781;BME280;6454;43.304;24.344;2023-04-26T00:39:06;99304.16;;;11.25;98.22
12781;BME280;6454;43.304;24.344;2023-04-26T00:41:36;99302.72;;;11.28;97.47
12781;BME280;6454;43.304;24.344;2023-04-26T00:44:03;99296.19;;;11.29;98.37
12781;BME280;6454;43.304;24.344;2023-04-26T00:46:29;99294.72;;;11.23;98.32
12781;BME280;6454;43.304;24.344;2023-04-26T00:48:56;99292.63;;;11.20;99.50
12781;BME280;6454;43.304;24.344;2023-04-26T00:51:23;99286.56;;;11.23;99.23
12781;BME280;6454;43.304;24.344;2023-04-26T00:53:51;99285.63;;;11.27;98.37
12781;BME280;6454;43.304;24.344;2023-04-26T00:56:19;99296.00;;;11.25;97.19
12781;BME280;6454;43.304;24.344;2023-04-26T00:58:47;99288.59;;;11.17;97.56
12781;BME280;6454;43.304;24.344;2023-04-26T01:01:14;99277.88;;;11.12;98.10
12781;BME280;6454;43.304;24.344;2023-04-26T01:03:41;99281.75;;;11.20;96.75
12781;BME280;6454;43.304;24.344;2023-04-26T01:06:09;99277.88;;;11.12;96.65
12781;BME280;6454;43.304;24.344;2023-04-26T01:08:37;99269.38;;;11.05;96.16
12781;BME280;6454;43.304;24.344;2023-04-26T01:11:04;99276.19;;;10.94;97.99
12781;BME280;6454;43.304;24.344;2023-04-26T01:13:31;99278.28;;;10.97;97.99
12781;BME280;6454;43.304;24.344;2023-04-26T01:16:00;99276.72;;;11.05;96.27
12781;BME280;6454;43.304;24.344;2023-04-26T01:18:27;99279.44;;;11.05;95.14
12781;BME280;6454;43.304;24.344;2023-04-26T01:20:54;99277.78;;;10.95;95.02
12781;BME280;6454;43.304;24.344;2023-04-26T01:23:22;99277.75;;;10.86;96.06
12781;BME280;6454;43.304;24.344;2023-04-26T01:25:49;99276.88;;;10.77;96.99
12781;BME280;6454;43.304;24.344;2023-04-26T01:28:16;99276.44;;;10.84;96.38
12781;BME280;6454;43.304;24.344;2023-04-26T01:30:42;99271.03;;;10.84;96.23
12781;BME280;6454;43.304;24.344;2023-04-26T01:33:09;99276.56;;;10.79;97.02
12781;BME280;6454;43.304;24.344;2023-04-26T01:35:36;99272.56;;;10.76;97.75
12781;BME280;6454;43.304;24.344;2023-04-26T01:38:03;99271.88;;;10.71;98.05
12781;BME280;6454;43.304;24.344;2023-04-26T01:40:31;99269.53;;;10.78;97.84
12781;BME280;6454;43.304;24.344;2023-04-26T01:42:57;99262.38;;;10.82;97.67
12781;BME280;6454;43.304;24.344;2023-04-26T01:45:24;99256.47;;;10.80;97.38
12781;BME280;6454;43.304;24.344;2023-04-26T01:47:51;99270.81;;;10.80;97.84
12781;BME280;6454;43.304;24.344;2023-04-26T01:50:18;99268.31;;;10.84;97.62
12781;BME280;6454;43.304;24.344;2023-04-26T01:52:45;99257.63;;;10.87;95.70
12781;BME280;6454;43.304;24.344;2023-04-26T01:55:12;99249.81;;;10.86;95.50
12781;BME280;6454;43.304;24.344;2023-04-26T01:57:40;99254.50;;;10.72;96.17
12781;BME280;6454;43.304;24.344;2023-04-26T02:00:08;99246.78;;;10.65;98.02
12781;BME280;6454;43.304;24.344;2023-04-26T02:02:35;99247.53;;;10.57;99.28
12781;BME280;6454;43.304;24.344;2023-04-26T02:05:02;99246.44;;;10.58;99.30
12781;BME280;6454;43.304;24.344;2023-04-26T02:07:29;99244.69;;;10.62;100.00
12781;BME280;6454;43.304;24.344;2023-04-26T02:09:56;99242.28;;;10.61;100.00
12781;BME280;6454;43.304;24.344;2023-04-26T02:12:23;99241.81;;;10.59;100.00
12781;BME280;6454;43.304;24.344;2023-04-26T02:14:51;99243.13;;;10.70;100.00
12781;BME280;6454;43.304;24.344;2023-04-26T02:17:17;99231.88;;;10.76;100.00
12781;BME280;6454;43.304;24.344;2023-04-26T02:19:45;99231.06;;;10.76;100.00
12781;BME280;6454;43.304;24.344;2023-04-26T02:22:12;99229.97;;;10.77;100.00
12781;BME280;6454;43.304;24.344;2023-04-26T02:24:39;99235.00;;;10.70;100.00
12781;BME280;6454;43.304;24.344;2023-04-26T02:27:06;99234.59;;;10.76;99.95
12781;BME280;6454;43.304;24.344;2023-04-26T02:29:32;99237.94;;;10.82;98.04
12781;BME280;6454;43.304;24.344;2023-04-26T02:32:02;99235.41;;;10.77;96.98
12781;BME280;6454;43.304;24.344;2023-04-26T02:34:29;99247.09;;;10.64;98.25
12781;BME280;6454;43.304;24.344;2023-04-26T02:36:56;99248.66;;;10.56;98.85
12781;BME280;6454;43.304;24.344;2023-04-26T02:39:23;99247.91;;;10.64;98.56
12781;BME280;6454;43.304;24.344;2023-04-26T02:41:50;99256.06;;;10.64;98.07
12781;BME280;6454;43.304;24.344;2023-04-26T02:44:17;99264.31;;;10.59;98.65
12781;BME280;6454;43.304;24.344;2023-04-26T02:46:43;99269.84;;;10.54;99.84
12781;BME280;6454;43.304;24.344;2023-04-26T02:49:11;99276.97;;;10.50;100.00
12781;BME280;6454;43.304;24.344;2023-04-26T02:51:38;99269.03;;;10.54;98.82
12781;BME280;6454;43.304;24.344;2023-04-26T02:54:05;99269.03;;;10.54;98.37
12781;BME280;6454;43.304;24.344;2023-04-26T02:56:32;99277.78;;;10.51;98.41
12781;BME280;6454;43.304;24.344;2023-04-26T02:58:59;99272.28;;;10.42;99.03
12781;BME280;6454;43.304;24.344;2023-04-26T03:01:26;99276.13;;;10.41;99.29
12781;BME280;6454;43.304;24.344;2023-04-26T03:03:53;99284.81;;;10.52;96.99
12781;BME280;6454;43.304;24.344;2023-04-26T03:06:21;99276.13;;;10.41;97.57
12781;BME280;6454;43.304;24.344;2023-04-26T03:08:48;99284.75;;;10.43;98.95
12781;BME280;6454;43.304;24.344;2023-04-26T03:11:15;99286.25;;;10.35;99.69
12781;BME280;6454;43.304;24.344;2023-04-26T03:13:42;99283.06;;;10.33;100.00
12781;BME280;6454;43.304;24.344;2023-04-26T03:16:09;99278.44;;;10.34;100.00
12781;BME280;6454;43.304;24.344;2023-04-26T03:18:36;99290.47;;;10.42;99.59
12781;BME280;6454;43.304;24.344;2023-04-26T03:21:02;99284.38;;;10.36;99.28
12781;BME280;6454;43.304;24.344;2023-04-26T03:23:31;99294.41;;;10.35;100.00
12781;BME280;6454;43.304;24.344;2023-04-26T03:25:57;99286.38;;;10.30;100.00
12781;BME280;6454;43.304;24.344;2023-04-26T03:28:24;99282.38;;;10.28;100.00
12781;BME280;6454;43.304;24.344;2023-04-26T03:30:51;99275.91;;;10.38;100.00
12781;BME280;6454;43.304;24.344;2023-04-26T03:33:17;99276.59;;;10.43;100.00
12781;BME280;6454;43.304;24.344;2023-04-26T03:35:44;99275.50;;;10.44;100.00
12781;BME280;6454;43.304;24.344;2023-04-26T03:38:11;99274.50;;;10.40;99.98
12781;BME280;6454;43.304;24.344;2023-04-26T03:40:39;99274.22;;;10.42;98.79
12781;BME280;6454;43.304;24.344;2023-04-26T03:43:06;99268.03;;;10.50;94.42
12781;BME280;6454;43.304;24.344;2023-04-26T03:45:33;99264.59;;;10.35;94.90
12781;BME280;6454;43.304;24.344;2023-04-26T03:48:00;99272.81;;;10.30;94.50
12781;BME280;6454;43.304;24.344;2023-04-26T03:50:27;99269.75;;;10.23;95.27
12781;BME280;6454;43.304;24.344;2023-04-26T03:52:54;99266.53;;;10.21;93.80
12781;BME280;6454;43.304;24.344;2023-04-26T03:55:21;99272.34;;;10.15;94.16
12781;BME280;6454;43.304;24.344;2023-04-26T03:57:49;99280.81;;;10.13;95.45
12781;BME280;6454;43.304;24.344;2023-04-26T04:00:18;99238.50;;;9.77;97.87
12781;BME280;6454;43.304;24.344;2023-04-26T04:02:45;99297.63;;;10.10;99.12
12781;BME280;6454;43.304;24.344;2023-04-26T04:05:11;99304.38;;;10.13;100.00
12781;BME280;6454;43.304;24.344;2023-04-26T04:07:38;99308.88;;;10.17;100.00
12781;BME280;6454;43.304;24.344;2023-04-26T04:10:06;99314.41;;;10.26;100.00
12781;BME280;6454;43.304;24.344;2023-04-26T04:12:34;99317.59;;;10.28;100.00
12781;BME280;6454;43.304;24.344;2023-04-26T04:15:03;99307.19;;;10.21;100.00
12781;BME280;6454;43.304;24.344;2023-04-26T04:17:30;99321.63;;;10.30;100.00
12781;BME280;6454;43.304;24.344;2023-04-26T04:19:57;99312.56;;;10.35;100.00
12781;BME280;6454;43.304;24.344;2023-04-26T04:22:23;99323.00;;;10.42;100.00
12781;BME280;6454;43.304;24.344;2023-04-26T04:24:50;99320.19;;;10.47;100.00
12781;BME280;6454;43.304;24.344;2023-04-26T04:27:17;99320.25;;;10.55;100.00
12781;BME280;6454;43.304;24.344;2023-04-26T04:29:45;99303.38;;;10.58;100.00
12781;BME280;6454;43.304;24.344;2023-04-26T04:32:14;99309.41;;;10.77;100.00
12781;BME280;6454;43.304;24.344;2023-04-26T04:34:41;99309.50;;;10.86;100.00
12781;BME280;6454;43.304;24.344;2023-04-26T04:37:09;99315.47;;;10.96;100.00
12781;BME280;6454;43.304;24.344;2023-04-26T04:39:35;99318.22;;;11.05;100.00
12781;BME280;6454;43.304;24.344;2023-04-26T04:42:02;99305.53;;;11.14;99.83
12781;BME280;6454;43.304;24.344;2023-04-26T04:44:29;99303.81;;;11.27;99.06
12781;BME280;6454;43.304;24.344;2023-04-26T04:46:57;99309.19;;;11.40;98.30
12781;BME280;6454;43.304;24.344;2023-04-26T04:49:25;99301.09;;;11.49;98.49
12781;BME280;6454;43.304;24.344;2023-04-26T04:51:51;99316.47;;;11.62;98.13
12781;BME280;6454;43.304;24.344;2023-04-26T04:54:18;99313.97;;;11.74;97.55
12781;BME280;6454;43.304;24.344;2023-04-26T04:56:45;99314.69;;;11.88;97.94
12781;BME280;6454;43.304;24.344;2023-04-26T04:59:12;99313.59;;;11.98;98.35
12781;BME280;6454;43.304;24.344;2023-04-26T05:01:39;99314.56;;;12.02;97.05
12781;BME280;6454;43.304;24.344;2023-04-26T05:04:06;99308.34;;;12.10;96.75
12781;BME280;6454;43.304;24.344;2023-04-26T05:06:34;99309.81;;;12.16;96.73
12781;BME280;6454;43.304;24.344;2023-04-26T05:09:01;99305.97;;;12.34;96.55
12781;BME280;6454;43.304;24.344;2023-04-26T05:11:29;99306.81;;;12.43;95.54
12781;BME280;6454;43.304;24.344;2023-04-26T05:13:56;99296.91;;;12.56;95.11
12781;BME280;6454;43.304;24.344;2023-04-26T05:16:23;99310.47;;;12.64;94.48
12781;BME280;6454;43.304;24.344;2023-04-26T05:18:50;99305.34;;;12.71;93.75
12781;BME280;6454;43.304;24.344;2023-04-26T05:21:17;99319.28;;;12.87;92.90
12781;BME280;6454;43.304;24.344;2023-04-26T05:23:45;99306.81;;;12.86;90.38
12781;BME280;6454;43.304;24.344;2023-04-26T05:26:14;99307.94;;;12.93;88.99
12781;BME280;6454;43.304;24.344;2023-04-26T05:28:41;99310.50;;;12.99;87.50
12781;BME280;6454;43.304;24.344;2023-04-26T05:31:08;99310.19;;;13.09;86.69
12781;BME280;6454;43.304;24.344;2023-04-26T05:33:35;99312.88;;;13.26;86.32
12781;BME280;6454;43.304;24.344;2023-04-26T05:36:02;99310.91;;;13.35;85.72
12781;BME280;6454;43.304;24.344;2023-04-26T05:38:29;99313.81;;;13.38;81.76
12781;BME280;6454;43.304;24.344;2023-04-26T05:40:57;99306.56;;;13.42;81.60
12781;BME280;6454;43.304;24.344;2023-04-26T05:43:24;99311.84;;;13.47;79.32
12781;BME280;6454;43.304;24.344;2023-04-26T05:45:51;99313.28;;;13.53;80.02
12781;BME280;6454;43.304;24.344;2023-04-26T05:48:20;99325.91;;;13.58;79.94
12781;BME280;6454;43.304;24.344;2023-04-26T05:50:48;99253.78;;;13.18;79.71
12781;BME280;6454;43.304;24.344;2023-04-26T05:53:15;99276.59;;;13.42;79.19
12781;BME280;6454;43.304;24.344;2023-04-26T05:55:42;99320.69;;;13.82;78.80
12781;BME280;6454;43.304;24.344;2023-04-26T05:58:10;99323.84;;;13.93;79.44
12781;BME280;6454;43.304;24.344;2023-04-26T06:00:37;99318.03;;;14.03;79.23
12781;BME280;6454;43.304;24.344;2023-04-26T06:03:05;99321.22;;;14.05;79.05
12781;BME280;6454;43.304;24.344;2023-04-26T06:05:32;99321.44;;;14.20;78.02
12781;BME280;6454;43.304;24.344;2023-04-26T06:07:59;99332.63;;;14.28;78.58
12781;BME280;6454;43.304;24.344;2023-04-26T06:10:26;99332.59;;;14.36;75.50
12781;BME280;6454;43.304;24.344;2023-04-26T06:12:53;99328.03;;;14.49;76.58
12781;BME280;6454;43.304;24.344;2023-04-26T06:15:21;99330.47;;;14.42;74.72
12781;BME280;6454;43.304;24.344;2023-04-26T06:17:48;99249.63;;;13.87;73.86
12781;BME280;6454;43.304;24.344;2023-04-26T06:20:15;99333.00;;;14.47;75.19
12781;BME280;6454;43.304;24.344;2023-04-26T06:22:41;99247.16;;;13.94;74.34
12781;BME280;6454;43.304;24.344;2023-04-26T06:25:09;99336.19;;;14.49;73.09
12781;BME280;6454;43.304;24.344;2023-04-26T06:27:35;99339.09;;;14.52;73.13
12781;BME280;6454;43.304;24.344;2023-04-26T06:30:04;99344.19;;;14.54;72.35
12781;BME280;6454;43.304;24.344;2023-04-26T06:32:33;99254.97;;;14.04;71.79
12781;BME280;6454;43.304;24.344;2023-04-26T06:35:00;99272.94;;;14.05;71.97
12781;BME280;6454;43.304;24.344;2023-04-26T06:37:27;99348.53;;;14.55;64.89
12781;BME280;6454;43.304;24.344;2023-04-26T06:39:54;99329.75;;;14.33;63.85
12781;BME280;6454;43.304;24.344;2023-04-26T06:42:25;99065.81;;;12.59;64.04
12781;BME280;6454;43.304;24.344;2023-04-26T06:44:52;99244.44;;;13.65;65.51
12781;BME280;6454;43.304;24.344;2023-04-26T06:47:18;99351.81;;;14.48;64.84
12781;BME280;6454;43.304;24.344;2023-04-26T06:49:47;99258.69;;;13.71;64.25
12781;BME280;6454;43.304;24.344;2023-04-26T06:52:14;99354.03;;;14.46;65.70
12781;BME280;6454;43.304;24.344;2023-04-26T06:54:41;99363.91;;;14.59;64.52
12781;BME280;6454;43.304;24.344;2023-04-26T06:57:08;99322.22;;;14.21;63.54
12781;BME280;6454;43.304;24.344;2023-04-26T06:59:36;99144.69;;;13.14;64.20
12781;BME280;6454;43.304;24.344;2023-04-26T07:02:06;99333.91;;;14.30;63.37
12781;BME280;6454;43.304;24.344;2023-04-26T07:04:33;99384.25;;;14.70;61.43
12781;BME280;6454;43.304;24.344;2023-04-26T07:07:02;99367.50;;;14.72;62.97
12781;BME280;6454;43.304;24.344;2023-04-26T07:09:29;99360.31;;;14.67;63.14
12781;BME280;6454;43.304;24.344;2023-04-26T07:11:56;99375.31;;;14.82;62.88
12781;BME280;6454;43.304;24.344;2023-04-26T07:14:23;99360.59;;;14.95;64.71
12781;BME280;6454;43.304;24.344;2023-04-26T07:16:49;99378.31;;;14.89;63.12
12781;BME280;6454;43.304;24.344;2023-04-26T07:19:16;99372.91;;;15.01;65.51
12781;BME280;6454;43.304;24.344;2023-04-26T07:21:44;99372.13;;;15.01;63.34
12781;BME280;6454;43.304;24.344;2023-04-26T07:24:12;99382.25;;;15.00;61.63
12781;BME280;6454;43.304;24.344;2023-04-26T07:26:39;99365.66;;;15.05;63.46
12781;BME280;6454;43.304;24.344;2023-04-26T07:29:06;99364.09;;;15.16;62.43
12781;BME280;6454;43.304;24.344;2023-04-26T07:31:33;99368.06;;;15.39;64.76
12781;BME280;6454;43.304;24.344;2023-04-26T07:34:00;99371.31;;;15.54;61.95
12781;BME280;6454;43.304;24.344;2023-04-26T07:36:27;99364.47;;;15.48;60.38
12781;BME280;6454;43.304;24.344;2023-04-26T07:38:53;99375.53;;;15.63;62.28
12781;BME280;6454;43.304;24.344;2023-04-26T07:41:22;99333.66;;;15.38;59.10
12781;BME280;6454;43.304;24.344;2023-04-26T07:43:49;99378.59;;;15.50;61.74
12781;BME280;6454;43.304;24.344;2023-04-26T07:46:15;99370.66;;;15.36;62.10
12781;BME280;6454;43.304;24.344;2023-04-26T07:48:42;99385.13;;;15.36;61.11
12781;BME280;6454;43.304;24.344;2023-04-26T07:51:10;99355.22;;;15.19;58.68
12781;BME280;6454;43.304;24.344;2023-04-26T07:53:37;99374.31;;;15.40;58.71
12781;BME280;6454;43.304;24.344;2023-04-26T07:56:05;99389.56;;;15.41;59.17
12781;BME280;6454;43.304;24.344;2023-04-26T07:58:34;99380.41;;;15.45;60.42
12781;BME280;6454;43.304;24.344;2023-04-26T08:01:03;99374.38;;;15.52;58.51
12781;BME280;6454;43.304;24.344;2023-04-26T08:03:32;99357.13;;;15.39;57.64
12781;BME280;6454;43.304;24.344;2023-04-26T08:05:59;99157.72;;;14.08;59.51
12781;BME280;6454;43.304;24.344;2023-04-26T08:08:26;99376.81;;;15.33;60.06
12781;BME280;6454;43.304;24.344;2023-04-26T08:10:53;99362.88;;;15.26;60.16
12781;BME280;6454;43.304;24.344;2023-04-26T08:13:20;99380.94;;;15.72;57.64
12781;BME280;6454;43.304;24.344;2023-04-26T08:15:49;99374.78;;;15.75;59.93
12781;BME280;6454;43.304;24.344;2023-04-26T08:18:15;99373.41;;;15.81;59.63
12781;BME280;6454;43.304;24.344;2023-04-26T08:20:42;99369.34;;;15.87;59.06
12781;BME280;6454;43.304;24.344;2023-04-26T08:23:09;99270.03;;;15.38;59.40
12781;BME280;6454;43.304;24.344;2023-04-26T08:25:36;99375.75;;;16.27;59.37
12781;BME280;6454;43.304;24.344;2023-04-26T08:28:04;99249.75;;;15.39;56.28
12781;BME280;6454;43.304;24.344;2023-04-26T08:30:32;99368.09;;;15.96;55.74
12781;BME280;6454;43.304;24.344;2023-04-26T08:33:00;99379.38;;;16.19;56.82
12781;BME280;6454;43.304;24.344;2023-04-26T08:35:27;99376.41;;;16.36;56.61
12781;BME280;6454;43.304;24.344;2023-04-26T08:37:54;99305.84;;;15.93;56.52
12781;BME280;6454;43.304;24.344;2023-04-26T08:40:22;99380.31;;;16.35;54.17
12781;BME280;6454;43.304;24.344;2023-04-26T08:42:50;99377.06;;;16.45;56.23
12781;BME280;6454;43.304;24.344;2023-04-26T08:45:18;99378.13;;;16.53;55.62
12781;BME280;6454;43.304;24.344;2023-04-26T08:47:47;99244.00;;;15.65;55.60
12781;BME280;6454;43.304;24.344;2023-04-26T08:50:18;99367.75;;;16.58;58.48
12781;BME280;6454;43.304;24.344;2023-04-26T08:52:47;99371.66;;;16.57;57.53
12781;BME280;6454;43.304;24.344;2023-04-26T08:55:15;99375.28;;;16.49;54.66
12781;BME280;6454;43.304;24.344;2023-04-26T08:57:42;99259.94;;;15.87;57.32
12781;BME280;6454;43.304;24.344;2023-04-26T09:00:12;99363.66;;;16.64;57.27
12781;BME280;6454;43.304;24.344;2023-04-26T09:02:41;99376.91;;;16.90;57.17
12781;BME280;6454;43.304;24.344;2023-04-26T09:05:11;99256.63;;;16.18;55.20
12781;BME280;6454;43.304;24.344;2023-04-26T09:07:53;99383.31;;;16.94;54.65
12781;BME280;6454;43.304;24.344;2023-04-26T09:10:22;99389.34;;;17.00;55.95
12781;BME280;6454;43.304;24.344;2023-04-26T09:12:50;99390.25;;;17.04;55.17
12781;BME280;6454;43.304;24.344;2023-04-26T09:15:19;99260.81;;;16.03;55.21
12781;BME280;6454;43.304;24.344;2023-04-26T09:17:47;99395.09;;;16.83;57.84
12781;BME280;6454;43.304;24.344;2023-04-26T09:20:19;99388.38;;;16.68;56.34
12781;BME280;6454;43.304;24.344;2023-04-26T09:22:49;99374.59;;;16.40;55.70
12781;BME280;6454;43.304;24.344;2023-04-26T09:25:17;99355.09;;;16.30;56.82
12781;BME280;6454;43.304;24.344;2023-04-26T09:27:45;99386.47;;;16.56;56.70
12781;BME280;6454;43.304;24.344;2023-04-26T09:30:13;99390.00;;;16.57;57.06
12781;BME280;6454;43.304;24.344;2023-04-26T09:32:47;99392.75;;;16.57;55.29
12781;BME280;6454;43.304;24.344;2023-04-26T09:35:22;99339.25;;;15.99;55.77
12781;BME280;6454;43.304;24.344;2023-04-26T09:37:53;99376.63;;;16.31;57.05
12781;BME280;6454;43.304;24.344;2023-04-26T09:40:21;99390.47;;;16.23;55.56
12781;BME280;6454;43.304;24.344;2023-04-26T09:42:56;99351.22;;;15.82;53.25
12781;BME280;6454;43.304;24.344;2023-04-26T09:45:23;99387.16;;;16.17;55.07
12781;BME280;6454;43.304;24.344;2023-04-26T09:47:50;99386.91;;;16.10;55.89
12781;BME280;6454;43.304;24.344;2023-04-26T09:50:28;99388.72;;;16.06;55.27
12781;BME280;6454;43.304;24.344;2023-04-26T09:52:56;99256.22;;;15.22;56.54
12781;BME280;6454;43.304;24.344;2023-04-26T09:55:27;99399.56;;;16.02;56.24
12781;BME280;6454;43.304;24.344;2023-04-26T09:57:55;99408.09;;;16.13;56.00
12781;BME280;6454;43.304;24.344;2023-04-26T10:00:23;99363.06;;;15.86;54.23
12781;BME280;6454;43.304;24.344;2023-04-26T10:02:52;99378.25;;;16.20;55.77
12781;BME280;6454;43.304;24.344;2023-04-26T10:05:19;99314.28;;;15.88;53.30
12781;BME280;6454;43.304;24.344;2023-04-26T10:07:47;99389.19;;;16.56;53.33
12781;BME280;6454;43.304;24.344;2023-04-26T10:10:17;99327.16;;;16.36;53.98
12781;BME280;6454;43.304;24.344;2023-04-26T10:12:44;99369.44;;;16.75;54.53
12781;BME280;6454;43.304;24.344;2023-04-26T10:15:11;99376.59;;;16.92;55.81
12781;BME280;6454;43.304;24.344;2023-04-26T10:17:38;99373.59;;;16.97;53.85
12781;BME280;6454;43.304;24.344;2023-04-26T10:20:10;99353.53;;;16.81;51.64
12781;BME280;6454;43.304;24.344;2023-04-26T10:22:43;99292.00;;;16.38;51.98
12781;BME280;6454;43.304;24.344;2023-04-26T10:25:11;99323.03;;;16.54;53.48
12781;BME280;6454;43.304;24.344;2023-04-26T10:27:51;99376.03;;;16.86;51.62
12781;BME280;6454;43.304;24.344;2023-04-26T10:30:21;99382.75;;;16.89;51.34
12781;BME280;6454;43.304;24.344;2023-04-26T10:33:14;99393.13;;;16.83;49.08
12781;BME280;6454;43.304;24.344;2023-04-26T10:36:09;99387.13;;;16.78;49.65
12781;BME280;6454;43.304;24.344;2023-04-26T10:38:38;99352.13;;;16.59;49.14
12781;BME280;6454;43.304;24.344;2023-04-26T10:41:32;99382.16;;;16.95;50.95
12781;BME280;6454;43.304;24.344;2023-04-26T10:47:04;99380.53;;;17.34;50.51
12781;BME280;6454;43.304;24.344;2023-04-26T10:49:42;99393.56;;;17.37;49.80
12781;BME280;6454;43.304;24.344;2023-04-26T10:52:13;99382.28;;;17.26;50.11
12781;BME280;6454;43.304;24.344;2023-04-26T10:54:52;99382.97;;;17.23;51.96
12781;BME280;6454;43.304;24.344;2023-04-26T10:57:20;99379.16;;;17.12;50.32
12781;BME280;6454;43.304;24.344;2023-04-26T11:00:17;99383.88;;;17.27;51.98
12781;BME280;6454;43.304;24.344;2023-04-26T11:02:56;99392.19;;;17.31;50.20
12781;BME280;6454;43.304;24.344;2023-04-26T11:05:53;99381.50;;;17.54;50.58
12781;BME280;6454;43.304;24.344;2023-04-26T11:08:25;99330.25;;;17.42;47.92
12781;BME280;6454;43.304;24.344;2023-04-26T11:11:04;99391.00;;;17.87;46.39
12781;BME280;6454;43.304;24.344;2023-04-26T11:13:35;99382.44;;;18.05;50.02
12781;BME280;6454;43.304;24.344;2023-04-26T11:16:05;99379.22;;;18.34;51.28
12781;BME280;6454;43.304;24.344;2023-04-26T11:18:33;99380.91;;;18.54;50.05
12781;BME280;6454;43.304;24.344;2023-04-26T11:21:00;99322.78;;;18.17;48.32
12781;BME280;6454;43.304;24.344;2023-04-26T11:23:29;99397.66;;;18.49;47.75
12781;BME280;6454;43.304;24.344;2023-04-26T11:25:56;99391.34;;;18.33;48.70
12781;BME280;6454;43.304;24.344;2023-04-26T11:28:23;99397.84;;;18.25;48.46
12781;BME280;6454;43.304;24.344;2023-04-26T11:30:51;99391.47;;;18.21;48.42
12781;BME280;6454;43.304;24.344;2023-04-26T11:33:20;99306.72;;;17.41;48.55
12781;BME280;6454;43.304;24.344;2023-04-26T11:35:48;99391.38;;;17.86;48.04
12781;BME280;6454;43.304;24.344;2023-04-26T11:38:15;99365.34;;;17.64;48.88
12781;BME280;6454;43.304;24.344;2023-04-26T11:40:43;99303.69;;;17.30;48.94
12781;BME280;6454;43.304;24.344;2023-04-26T11:43:10;99392.00;;;17.79;48.66
12781;BME280;6454;43.304;24.344;2023-04-26T11:45:38;99379.94;;;17.84;50.29
12781;BME280;6454;43.304;24.344;2023-04-26T11:48:06;99398.63;;;17.94;48.32
12781;BME280;6454;43.304;24.344;2023-04-26T11:50:36;99386.41;;;17.91;48.04
12781;BME280;6454;43.304;24.344;2023-04-26T11:53:04;99374.28;;;17.92;47.15
12781;BME280;6454;43.304;24.344;2023-04-26T11:55:32;99370.56;;;18.00;47.49
12781;BME280;6454;43.304;24.344;2023-04-26T11:58:00;99368.72;;;18.05;48.91
12781;BME280;6454;43.304;24.344;2023-04-26T12:00:28;99377.91;;;18.28;47.55
12781;BME280;6454;43.304;24.344;2023-04-26T12:02:54;99366.75;;;18.21;45.78
12781;BME280;6454;43.304;24.344;2023-04-26T12:05:23;99376.88;;;18.17;48.35
12781;BME280;6454;43.304;24.344;2023-04-26T12:07:53;99379.50;;;18.29;47.38
12781;BME280;6454;43.304;24.344;2023-04-26T12:10:23;99368.78;;;18.39;48.22
12781;BME280;6454;43.304;24.344;2023-04-26T12:12:50;99370.53;;;18.63;47.76
12781;BME280;6454;43.304;24.344;2023-04-26T12:15:18;99375.69;;;18.49;46.46
12781;BME280;6454;43.304;24.344;2023-04-26T12:17:55;99380.38;;;18.64;45.24
12781;BME280;6454;43.304;24.344;2023-04-26T12:20:27;99372.56;;;18.85;46.72
12781;BME280;6454;43.304;24.344;2023-04-26T12:23:03;99378.06;;;18.85;43.76
12781;BME280;6454;43.304;24.344;2023-04-26T12:25:32;99357.75;;;18.71;45.69
12781;BME280;6454;43.304;24.344;2023-04-26T12:27:59;99367.22;;;18.92;47.25
12781;BME280;6454;43.304;24.344;2023-04-26T12:30:28;99354.22;;;18.89;43.87
12781;BME280;6454;43.304;24.344;2023-04-26T12:32:55;99370.72;;;18.89;44.94
12781;BME280;6454;43.304;24.344;2023-04-26T12:35:23;99372.72;;;18.73;45.37
12781;BME280;6454;43.304;24.344;2023-04-26T12:37:50;99236.47;;;17.99;44.31
12781;BME280;6454;43.304;24.344;2023-04-26T12:40:19;99354.94;;;18.86;44.87
12781;BME280;6454;43.304;24.344;2023-04-26T12:42:47;99340.03;;;18.87;44.39
12781;BME280;6454;43.304;24.344;2023-04-26T12:45:15;99302.13;;;18.77;43.04
12781;BME280;6454;43.304;24.344;2023-04-26T12:47:43;99361.53;;;19.01;41.57
12781;BME280;6454;43.304;24.344;2023-04-26T12:50:10;99362.75;;;18.84;43.55
12781;BME280;6454;43.304;24.344;2023-04-26T12:52:38;99366.66;;;18.83;42.93
12781;BME280;6454;43.304;24.344;2023-04-26T12:55:06;99358.16;;;18.53;42.46
12781;BME280;6454;43.304;24.344;2023-04-26T12:57:35;99352.81;;;18.45;44.17
12781;BME280;6454;43.304;24.344;2023-04-26T13:00:03;99284.94;;;18.11;42.94
12781;BME280;6454;43.304;24.344;2023-04-26T13:02:30;99349.38;;;18.48;44.27
12781;BME280;6454;43.304;24.344;2023-04-26T13:04:57;99355.50;;;18.41;44.33
12781;BME280;6454;43.304;24.344;2023-04-26T13:07:25;99310.88;;;18.13;44.51
12781;BME280;6454;43.304;24.344;2023-04-26T13:09:52;99340.38;;;18.32;44.82